sensor_id;sensor_type;location;lat;lon;timestamp;P1;durP1;ratioP1;P2;durP2;ratioP2
53309;SDS011;39197;53.200;5.792;2024-03-25T00:02:12;23.05;;;4.15;;
53309;SDS011;39197;53.200;5.792;2024-03-25T00:04:38;21.80;;;3.28;;
53309;SDS011;39197;53.200;5.792;2024-03-25T00:07:04;21.00;;;2.92;;
53309;SDS011;39197;53.200;5.792;2024-03-25T00:09:29;16.08;;;2.72;;
53309;SDS011;39197;53.200;5.792;2024-03-25T00:11:55;19.52;;;3.08;;
53309;SDS011;39197;53.200;5.792;2024-03-25T00:14:21;22.77;;;3.63;;
53309;SDS011;39197;53.200;5.792;2024-03-25T00:16:47;19.45;;;3.63;;
53309;SDS011;39197;53.200;5.792;2024-03-25T00:19:12;19.42;;;3.90;;
53309;SDS011;39197;53.200;5.792;2024-03-25T00:21:38;20.67;;;3.13;;
53309;SDS011;39197;53.200;5.792;2024-03-25T00:24:04;32.63;;;5.47;;
53309;SDS011;39197;53.200;5.792;2024-03-25T00:26:30;23.05;;;2.85;;
53309;SDS011;39197;53.200;5.792;2024-03-25T00:28:56;21.52;;;2.92;;
53309;SDS011;39197;53.200;5.792;2024-03-25T00:31:21;21.27;;;3.60;;
53309;SDS011;39197;53.200;5.792;2024-03-25T00:33:47;18.15;;;3.50;;
53309;SDS011;39197;53.200;5.792;2024-03-25T00:36:12;14.57;;;2.60;;
53309;SDS011;39197;53.200;5.792;2024-03-25T00:38:38;15.38;;;2.42;;
53309;SDS011;39197;53.200;5.792;2024-03-25T00:41:04;24.27;;;3.00;;
53309;SDS011;39197;53.200;5.792;2024-03-25T00:43:29;21.27;;;3.10;;
53309;SDS011;39197;53.200;5.792;2024-03-25T00:45:55;21.63;;;2.63;;
53309;SDS011;39197;53.200;5.792;2024-03-25T00:48:21;18.98;;;2.88;;
53309;SDS011;39197;53.200;5.792;2024-03-25T00:50:47;22.45;;;3.20;;
53309;SDS011;39197;53.200;5.792;2024-03-25T00:53:13;23.77;;;3.97;;
53309;SDS011;39197;53.200;5.792;2024-03-25T00:55:39;19.77;;;2.80;;
53309;SDS011;39197;53.200;5.792;2024-03-25T00:58:05;25.25;;;3.53;;
53309;SDS011;39197;53.200;5.792;2024-03-25T01:00:31;20.45;;;3.60;;
53309;SDS011;39197;53.200;5.792;2024-03-25T01:02:56;17.25;;;2.05;;
53309;SDS011;39197;53.200;5.792;2024-03-25T01:05:22;22.17;;;3.20;;
53309;SDS011;39197;53.200;5.792;2024-03-25T01:07:47;17.00;;;3.30;;
53309;SDS011;39197;53.200;5.792;2024-03-25T01:10:14;23.98;;;4.35;;
53309;SDS011;39197;53.200;5.792;2024-03-25T01:12:41;11.60;;;2.80;;
53309;SDS011;39197;53.200;5.792;2024-03-25T01:15:07;16.25;;;2.28;;
53309;SDS011;39197;53.200;5.792;2024-03-25T01:17:35;15.50;;;2.72;;
53309;SDS011;39197;53.200;5.792;2024-03-25T01:20:03;16.85;;;3.42;;
53309;SDS011;39197;53.200;5.792;2024-03-25T01:22:34;14.50;;;2.55;;
53309;SDS011;39197;53.200;5.792;2024-03-25T01:24:59;14.55;;;1.95;;
53309;SDS011;39197;53.200;5.792;2024-03-25T01:27:25;20.83;;;3.25;;
53309;SDS011;39197;53.200;5.792;2024-03-25T01:29:51;12.95;;;1.98;;
53309;SDS011;39197;53.200;5.792;2024-03-25T01:32:17;16.00;;;2.47;;
53309;SDS011;39197;53.200;5.792;2024-03-25T01:34:42;15.98;;;2.40;;
53309;SDS011;39197;53.200;5.792;2024-03-25T01:37:08;11.85;;;2.13;;
53309;SDS011;39197;53.200;5.792;2024-03-25T01:39:34;20.25;;;3.00;;
53309;SDS011;39197;53.200;5.792;2024-03-25T01:41:59;17.50;;;3.10;;
53309;SDS011;39197;53.200;5.792;2024-03-25T01:44:25;21.67;;;3.10;;
53309;SDS011;39197;53.200;5.792;2024-03-25T01:46:50;12.90;;;2.00;;
53309;SDS011;39197;53.200;5.792;2024-03-25T01:49:17;16.30;;;3.60;;
53309;SDS011;39197;53.200;5.792;2024-03-25T01:51:44;14.80;;;2.80;;
53309;SDS011;39197;53.200;5.792;2024-03-25T01:54:10;15.90;;;2.40;;
53309;SDS011;39197;53.200;5.792;2024-03-25T01:56:39;17.73;;;2.78;;
53309;SDS011;39197;53.200;5.792;2024-03-25T01:59:07;14.00;;;2.15;;
53309;SDS011;39197;53.200;5.792;2024-03-25T02:01:32;12.57;;;2.50;;
53309;SDS011;39197;53.200;5.792;2024-03-25T02:03:59;15.05;;;2.03;;
53309;SDS011;39197;53.200;5.792;2024-03-25T02:06:26;20.58;;;2.55;;
53309;SDS011;39197;53.200;5.792;2024-03-25T02:08:52;15.82;;;1.95;;
53309;SDS011;39197;53.200;5.792;2024-03-25T02:11:19;11.38;;;1.80;;
53309;SDS011;39197;53.200;5.792;2024-03-25T02:13:46;11.02;;;1.58;;
53309;SDS011;39197;53.200;5.792;2024-03-25T02:16:11;16.73;;;1.73;;
53309;SDS011;39197;53.200;5.792;2024-03-25T02:18:37;17.65;;;1.70;;
53309;SDS011;39197;53.200;5.792;2024-03-25T02:21:02;15.15;;;1.80;;
53309;SDS011;39197;53.200;5.792;2024-03-25T02:23:28;13.50;;;2.38;;
53309;SDS011;39197;53.200;5.792;2024-03-25T02:25:54;14.10;;;2.17;;
53309;SDS011;39197;53.200;5.792;2024-03-25T02:28:20;18.98;;;1.90;;
53309;SDS011;39197;53.200;5.792;2024-03-25T02:30:46;13.18;;;1.90;;
53309;SDS011;39197;53.200;5.792;2024-03-25T02:33:12;19.48;;;3.40;;
53309;SDS011;39197;53.200;5.792;2024-03-25T02:35:38;15.00;;;2.03;;
53309;SDS011;39197;53.200;5.792;2024-03-25T02:38:05;14.07;;;1.95;;
53309;SDS011;39197;53.200;5.792;2024-03-25T02:40:31;11.43;;;1.98;;
53309;SDS011;39197;53.200;5.792;2024-03-25T02:42:58;24.75;;;3.80;;
53309;SDS011;39197;53.200;5.792;2024-03-25T02:45:24;14.50;;;2.42;;
53309;SDS011;39197;53.200;5.792;2024-03-25T02:47:50;16.55;;;2.13;;
53309;SDS011;39197;53.200;5.792;2024-03-25T02:50:16;11.65;;;1.75;;
53309;SDS011;39197;53.200;5.792;2024-03-25T02:52:42;24.63;;;3.00;;
53309;SDS011;39197;53.200;5.792;2024-03-25T02:55:08;9.27;;;1.90;;
53309;SDS011;39197;53.200;5.792;2024-03-25T02:57:34;13.60;;;1.88;;
53309;SDS011;39197;53.200;5.792;2024-03-25T02:59:59;14.40;;;1.73;;
53309;SDS011;39197;53.200;5.792;2024-03-25T03:02:25;10.57;;;1.55;;
53309;SDS011;39197;53.200;5.792;2024-03-25T03:04:50;12.10;;;2.10;;
53309;SDS011;39197;53.200;5.792;2024-03-25T03:07:16;16.15;;;1.95;;
53309;SDS011;39197;53.200;5.792;2024-03-25T03:09:42;16.45;;;2.28;;
53309;SDS011;39197;53.200;5.792;2024-03-25T03:12:07;16.08;;;2.15;;
53309;SDS011;39197;53.200;5.792;2024-03-25T03:14:33;30.35;;;3.80;;
53309;SDS011;39197;53.200;5.792;2024-03-25T03:16:59;14.30;;;2.03;;
53309;SDS011;39197;53.200;5.792;2024-03-25T03:19:29;15.65;;;2.95;;
53309;SDS011;39197;53.200;5.792;2024-03-25T03:21:55;15.60;;;2.10;;
53309;SDS011;39197;53.200;5.792;2024-03-25T03:24:21;16.98;;;2.67;;
53309;SDS011;39197;53.200;5.792;2024-03-25T03:26:47;24.02;;;2.90;;
53309;SDS011;39197;53.200;5.792;2024-03-25T03:29:13;17.00;;;1.98;;
53309;SDS011;39197;53.200;5.792;2024-03-25T03:31:39;14.90;;;1.50;;
53309;SDS011;39197;53.200;5.792;2024-03-25T03:34:04;19.13;;;2.13;;
53309;SDS011;39197;53.200;5.792;2024-03-25T03:36:30;27.77;;;3.50;;
53309;SDS011;39197;53.200;5.792;2024-03-25T03:38:55;19.63;;;2.28;;
53309;SDS011;39197;53.200;5.792;2024-03-25T03:41:21;15.88;;;2.10;;
53309;SDS011;39197;53.200;5.792;2024-03-25T03:43:47;12.52;;;1.50;;
53309;SDS011;39197;53.200;5.792;2024-03-25T03:46:12;15.85;;;1.38;;
53309;SDS011;39197;53.200;5.792;2024-03-25T03:48:38;18.30;;;1.73;;
53309;SDS011;39197;53.200;5.792;2024-03-25T03:51:04;11.48;;;1.35;;
53309;SDS011;39197;53.200;5.792;2024-03-25T03:53:31;14.95;;;1.90;;
53309;SDS011;39197;53.200;5.792;2024-03-25T03:55:58;16.75;;;1.48;;
53309;SDS011;39197;53.200;5.792;2024-03-25T03:58:24;15.30;;;1.88;;
53309;SDS011;39197;53.200;5.792;2024-03-25T04:00:50;16.08;;;2.15;;
53309;SDS011;39197;53.200;5.792;2024-03-25T04:03:17;15.82;;;1.85;;
53309;SDS011;39197;53.200;5.792;2024-03-25T04:05:44;15.07;;;1.95;;
53309;SDS011;39197;53.200;5.792;2024-03-25T04:08:09;19.67;;;1.92;;
53309;SDS011;39197;53.200;5.792;2024-03-25T04:10:35;11.02;;;1.15;;
53309;SDS011;39197;53.200;5.792;2024-03-25T04:13:02;14.50;;;1.90;;
53309;SDS011;39197;53.200;5.792;2024-03-25T04:15:28;13.20;;;1.52;;
53309;SDS011;39197;53.200;5.792;2024-03-25T04:17:54;18.05;;;1.90;;
53309;SDS011;39197;53.200;5.792;2024-03-25T04:20:20;11.98;;;1.90;;
53309;SDS011;39197;53.200;5.792;2024-03-25T04:22:45;12.50;;;1.33;;
53309;SDS011;39197;53.200;5.792;2024-03-25T04:25:12;16.73;;;1.52;;
53309;SDS011;39197;53.200;5.792;2024-03-25T04:27:41;13.27;;;1.50;;
53309;SDS011;39197;53.200;5.792;2024-03-25T04:30:08;15.27;;;1.80;;
53309;SDS011;39197;53.200;5.792;2024-03-25T04:32:34;13.75;;;2.17;;
53309;SDS011;39197;53.200;5.792;2024-03-25T04:35:01;16.98;;;2.03;;
53309;SDS011;39197;53.200;5.792;2024-03-25T04:37:27;16.45;;;1.85;;
53309;SDS011;39197;53.200;5.792;2024-03-25T04:39:53;13.57;;;1.85;;
53309;SDS011;39197;53.200;5.792;2024-03-25T04:42:19;16.13;;;2.17;;
53309;SDS011;39197;53.200;5.792;2024-03-25T04:44:45;11.90;;;1.38;;
53309;SDS011;39197;53.200;5.792;2024-03-25T04:47:11;14.65;;;1.30;;
53309;SDS011;39197;53.200;5.792;2024-03-25T04:49:37;10.20;;;1.55;;
53309;SDS011;39197;53.200;5.792;2024-03-25T04:52:03;14.32;;;1.55;;
53309;SDS011;39197;53.200;5.792;2024-03-25T04:54:29;7.47;;;1.25;;
53309;SDS011;39197;53.200;5.792;2024-03-25T04:56:55;10.77;;;1.02;;
53309;SDS011;39197;53.200;5.792;2024-03-25T04:59:20;7.35;;;0.75;;
53309;SDS011;39197;53.200;5.792;2024-03-25T05:01:46;5.40;;;0.60;;
53309;SDS011;39197;53.200;5.792;2024-03-25T05:04:12;10.00;;;0.88;;
53309;SDS011;39197;53.200;5.792;2024-03-25T05:06:38;10.90;;;1.75;;
53309;SDS011;39197;53.200;5.792;2024-03-25T05:09:03;6.45;;;0.80;;
53309;SDS011;39197;53.200;5.792;2024-03-25T05:11:31;5.70;;;0.50;;
53309;SDS011;39197;53.200;5.792;2024-03-25T05:13:57;8.13;;;1.55;;
53309;SDS011;39197;53.200;5.792;2024-03-25T05:16:22;7.68;;;1.40;;
53309;SDS011;39197;53.200;5.792;2024-03-25T05:18:48;7.72;;;0.73;;
53309;SDS011;39197;53.200;5.792;2024-03-25T05:21:14;8.77;;;0.75;;
53309;SDS011;39197;53.200;5.792;2024-03-25T05:23:39;10.73;;;0.90;;
53309;SDS011;39197;53.200;5.792;2024-03-25T05:26:05;11.35;;;1.10;;
53309;SDS011;39197;53.200;5.792;2024-03-25T05:28:30;7.20;;;0.93;;
53309;SDS011;39197;53.200;5.792;2024-03-25T05:30:56;9.88;;;1.08;;
53309;SDS011;39197;53.200;5.792;2024-03-25T05:33:21;7.30;;;1.05;;
53309;SDS011;39197;53.200;5.792;2024-03-25T05:35:47;9.73;;;1.55;;
53309;SDS011;39197;53.200;5.792;2024-03-25T05:38:13;8.77;;;1.00;;
53309;SDS011;39197;53.200;5.792;2024-03-25T05:40:39;10.57;;;1.35;;
53309;SDS011;39197;53.200;5.792;2024-03-25T05:43:04;9.10;;;1.35;;
53309;SDS011;39197;53.200;5.792;2024-03-25T05:45:30;10.60;;;1.33;;
53309;SDS011;39197;53.200;5.792;2024-03-25T05:47:55;14.80;;;1.35;;
53309;SDS011;39197;53.200;5.792;2024-03-25T05:50:21;8.43;;;1.10;;
53309;SDS011;39197;53.200;5.792;2024-03-25T05:52:46;11.23;;;1.63;;
53309;SDS011;39197;53.200;5.792;2024-03-25T05:55:12;11.63;;;1.27;;
53309;SDS011;39197;53.200;5.792;2024-03-25T05:57:38;9.05;;;1.05;;
53309;SDS011;39197;53.200;5.792;2024-03-25T06:00:04;15.68;;;1.63;;
53309;SDS011;39197;53.200;5.792;2024-03-25T06:02:32;11.55;;;1.23;;
53309;SDS011;39197;53.200;5.792;2024-03-25T06:04:58;17.35;;;1.50;;
53309;SDS011;39197;53.200;5.792;2024-03-25T06:07:23;15.10;;;2.40;;
53309;SDS011;39197;53.200;5.792;2024-03-25T06:09:49;12.10;;;2.15;;
53309;SDS011;39197;53.200;5.792;2024-03-25T06:12:15;11.30;;;1.67;;
53309;SDS011;39197;53.200;5.792;2024-03-25T06:14:40;7.82;;;1.13;;
53309;SDS011;39197;53.200;5.792;2024-03-25T06:17:06;15.75;;;2.30;;
53309;SDS011;39197;53.200;5.792;2024-03-25T06:19:31;13.70;;;1.77;;
53309;SDS011;39197;53.200;5.792;2024-03-25T06:21:57;15.65;;;1.65;;
53309;SDS011;39197;53.200;5.792;2024-03-25T06:24:22;10.52;;;1.48;;
53309;SDS011;39197;53.200;5.792;2024-03-25T06:26:48;15.05;;;1.95;;
53309;SDS011;39197;53.200;5.792;2024-03-25T06:29:14;13.25;;;2.00;;
53309;SDS011;39197;53.200;5.792;2024-03-25T06:31:39;16.42;;;1.88;;
53309;SDS011;39197;53.200;5.792;2024-03-25T06:34:24;15.82;;;3.08;;
53309;SDS011;39197;53.200;5.792;2024-03-25T06:36:50;16.30;;;2.63;;
53309;SDS011;39197;53.200;5.792;2024-03-25T06:39:16;13.00;;;2.50;;
53309;SDS011;39197;53.200;5.792;2024-03-25T06:41:41;15.90;;;2.53;;
53309;SDS011;39197;53.200;5.792;2024-03-25T06:44:07;12.68;;;1.70;;
53309;SDS011;39197;53.200;5.792;2024-03-25T06:46:33;17.83;;;2.08;;
53309;SDS011;39197;53.200;5.792;2024-03-25T06:48:58;18.80;;;2.45;;
53309;SDS011;39197;53.200;5.792;2024-03-25T06:51:24;20.42;;;2.30;;
53309;SDS011;39197;53.200;5.792;2024-03-25T06:53:50;16.73;;;2.33;;
53309;SDS011;39197;53.200;5.792;2024-03-25T06:56:16;15.68;;;3.22;;
53309;SDS011;39197;53.200;5.792;2024-03-25T06:58:42;16.00;;;2.00;;
53309;SDS011;39197;53.200;5.792;2024-03-25T07:01:08;16.55;;;1.98;;
53309;SDS011;39197;53.200;5.792;2024-03-25T07:03:37;23.83;;;2.55;;
53309;SDS011;39197;53.200;5.792;2024-03-25T07:06:03;12.98;;;1.73;;
53309;SDS011;39197;53.200;5.792;2024-03-25T07:08:30;16.83;;;2.45;;
53309;SDS011;39197;53.200;5.792;2024-03-25T07:10:56;11.93;;;2.45;;
53309;SDS011;39197;53.200;5.792;2024-03-25T07:13:22;13.98;;;1.77;;
53309;SDS011;39197;53.200;5.792;2024-03-25T07:15:48;17.40;;;2.33;;
53309;SDS011;39197;53.200;5.792;2024-03-25T07:18:13;11.98;;;1.58;;
53309;SDS011;39197;53.200;5.792;2024-03-25T07:20:39;12.45;;;2.08;;
53309;SDS011;39197;53.200;5.792;2024-03-25T07:23:05;10.77;;;2.00;;
53309;SDS011;39197;53.200;5.792;2024-03-25T07:25:31;13.13;;;1.92;;
53309;SDS011;39197;53.200;5.792;2024-03-25T07:27:57;9.70;;;1.45;;
53309;SDS011;39197;53.200;5.792;2024-03-25T07:30:23;13.02;;;1.55;;
53309;SDS011;39197;53.200;5.792;2024-03-25T07:32:55;5.93;;;1.05;;
53309;SDS011;39197;53.200;5.792;2024-03-25T07:35:21;9.85;;;1.42;;
53309;SDS011;39197;53.200;5.792;2024-03-25T07:37:47;13.13;;;1.98;;
53309;SDS011;39197;53.200;5.792;2024-03-25T07:40:16;9.82;;;1.27;;
53309;SDS011;39197;53.200;5.792;2024-03-25T07:42:44;9.70;;;1.20;;
53309;SDS011;39197;53.200;5.792;2024-03-25T07:45:10;14.70;;;2.22;;
53309;SDS011;39197;53.200;5.792;2024-03-25T07:47:36;9.95;;;1.08;;
53309;SDS011;39197;53.200;5.792;2024-03-25T07:50:02;11.75;;;1.58;;
53309;SDS011;39197;53.200;5.792;2024-03-25T07:52:28;13.90;;;3.13;;
53309;SDS011;39197;53.200;5.792;2024-03-25T07:54:54;11.23;;;1.25;;
53309;SDS011;39197;53.200;5.792;2024-03-25T07:57:20;10.25;;;1.63;;
53309;SDS011;39197;53.200;5.792;2024-03-25T07:59:46;8.30;;;1.30;;
53309;SDS011;39197;53.200;5.792;2024-03-25T08:02:11;11.18;;;1.52;;
53309;SDS011;39197;53.200;5.792;2024-03-25T08:04:37;9.23;;;1.40;;
53309;SDS011;39197;53.200;5.792;2024-03-25T08:07:03;11.18;;;1.42;;
53309;SDS011;39197;53.200;5.792;2024-03-25T08:09:29;10.98;;;2.20;;
53309;SDS011;39197;53.200;5.792;2024-03-25T08:11:54;10.30;;;1.65;;
53309;SDS011;39197;53.200;5.792;2024-03-25T08:14:20;7.90;;;1.52;;
53309;SDS011;39197;53.200;5.792;2024-03-25T08:16:46;13.43;;;1.70;;
53309;SDS011;39197;53.200;5.792;2024-03-25T08:19:11;9.98;;;1.40;;
53309;SDS011;39197;53.200;5.792;2024-03-25T08:21:37;8.82;;;1.80;;
53309;SDS011;39197;53.200;5.792;2024-03-25T08:24:02;13.95;;;1.95;;
53309;SDS011;39197;53.200;5.792;2024-03-25T08:26:28;8.43;;;1.30;;
53309;SDS011;39197;53.200;5.792;2024-03-25T08:28:54;11.63;;;1.52;;
53309;SDS011;39197;53.200;5.792;2024-03-25T08:31:20;11.65;;;1.70;;
53309;SDS011;39197;53.200;5.792;2024-03-25T08:33:46;11.40;;;1.20;;
53309;SDS011;39197;53.200;5.792;2024-03-25T08:36:11;12.43;;;2.10;;
53309;SDS011;39197;53.200;5.792;2024-03-25T08:38:37;12.77;;;2.28;;
53309;SDS011;39197;53.200;5.792;2024-03-25T08:41:03;14.10;;;2.40;;
53309;SDS011;39197;53.200;5.792;2024-03-25T08:43:29;13.15;;;1.63;;
53309;SDS011;39197;53.200;5.792;2024-03-25T08:45:54;14.68;;;2.85;;
53309;SDS011;39197;53.200;5.792;2024-03-25T08:48:22;17.30;;;2.00;;
53309;SDS011;39197;53.200;5.792;2024-03-25T08:50:48;12.70;;;1.77;;
53309;SDS011;39197;53.200;5.792;2024-03-25T08:53:14;12.57;;;1.67;;
53309;SDS011;39197;53.200;5.792;2024-03-25T08:55:46;8.93;;;1.30;;
53309;SDS011;39197;53.200;5.792;2024-03-25T08:58:13;10.50;;;1.50;;
53309;SDS011;39197;53.200;5.792;2024-03-25T09:00:39;13.32;;;1.85;;
53309;SDS011;39197;53.200;5.792;2024-03-25T09:03:04;12.23;;;1.63;;
53309;SDS011;39197;53.200;5.792;2024-03-25T09:05:30;16.23;;;2.25;;
53309;SDS011;39197;53.200;5.792;2024-03-25T09:07:55;10.52;;;1.55;;
53309;SDS011;39197;53.200;5.792;2024-03-25T09:10:23;16.38;;;2.75;;
53309;SDS011;39197;53.200;5.792;2024-03-25T09:13:08;12.60;;;1.77;;
53309;SDS011;39197;53.200;5.792;2024-03-25T09:15:34;17.80;;;2.58;;
53309;SDS011;39197;53.200;5.792;2024-03-25T09:18:00;13.35;;;2.55;;
53309;SDS011;39197;53.200;5.792;2024-03-25T09:20:25;10.25;;;2.00;;
53309;SDS011;39197;53.200;5.792;2024-03-25T09:22:51;10.80;;;2.05;;
53309;SDS011;39197;53.200;5.792;2024-03-25T09:25:17;14.35;;;1.92;;
53309;SDS011;39197;53.200;5.792;2024-03-25T09:27:46;10.10;;;1.83;;
53309;SDS011;39197;53.200;5.792;2024-03-25T09:30:13;12.98;;;1.83;;
53309;SDS011;39197;53.200;5.792;2024-03-25T09:32:40;15.98;;;1.80;;
53309;SDS011;39197;53.200;5.792;2024-03-25T09:35:07;13.75;;;2.22;;
53309;SDS011;39197;53.200;5.792;2024-03-25T09:37:33;13.48;;;2.00;;
53309;SDS011;39197;53.200;5.792;2024-03-25T09:39:59;11.07;;;1.33;;
53309;SDS011;39197;53.200;5.792;2024-03-25T09:42:31;15.30;;;2.33;;
53309;SDS011;39197;53.200;5.792;2024-03-25T09:45:00;9.95;;;2.00;;
53309;SDS011;39197;53.200;5.792;2024-03-25T09:47:28;13.52;;;2.53;;
53309;SDS011;39197;53.200;5.792;2024-03-25T09:49:56;14.27;;;2.25;;
53309;SDS011;39197;53.200;5.792;2024-03-25T09:52:26;14.23;;;1.90;;
53309;SDS011;39197;53.200;5.792;2024-03-25T09:54:52;12.07;;;1.48;;
53309;SDS011;39197;53.200;5.792;2024-03-25T09:57:17;10.07;;;1.25;;
53309;SDS011;39197;53.200;5.792;2024-03-25T09:59:43;13.43;;;2.28;;
53309;SDS011;39197;53.200;5.792;2024-03-25T10:02:09;13.65;;;2.70;;
53309;SDS011;39197;53.200;5.792;2024-03-25T10:04:39;14.13;;;1.38;;
53309;SDS011;39197;53.200;5.792;2024-03-25T10:07:10;5.38;;;0.75;;
53309;SDS011;39197;53.200;5.792;2024-03-25T10:09:36;8.77;;;1.98;;
53309;SDS011;39197;53.200;5.792;2024-03-25T10:12:01;10.02;;;1.48;;
53309;SDS011;39197;53.200;5.792;2024-03-25T10:14:27;6.60;;;1.00;;
53309;SDS011;39197;53.200;5.792;2024-03-25T10:16:53;10.45;;;1.60;;
53309;SDS011;39197;53.200;5.792;2024-03-25T10:19:18;15.25;;;1.70;;
53309;SDS011;39197;53.200;5.792;2024-03-25T10:21:44;8.45;;;1.42;;
53309;SDS011;39197;53.200;5.792;2024-03-25T10:24:09;11.80;;;1.92;;
53309;SDS011;39197;53.200;5.792;2024-03-25T10:26:36;12.73;;;1.65;;
53309;SDS011;39197;53.200;5.792;2024-03-25T10:29:06;8.13;;;1.42;;
53309;SDS011;39197;53.200;5.792;2024-03-25T10:31:32;7.15;;;1.73;;
53309;SDS011;39197;53.200;5.792;2024-03-25T10:33:59;11.85;;;1.63;;
53309;SDS011;39197;53.200;5.792;2024-03-25T10:36:25;10.80;;;0.95;;
53309;SDS011;39197;53.200;5.792;2024-03-25T10:38:57;7.53;;;1.00;;
53309;SDS011;39197;53.200;5.792;2024-03-25T10:41:32;9.02;;;1.60;;
53309;SDS011;39197;53.200;5.792;2024-03-25T10:44:00;6.90;;;0.93;;
53309;SDS011;39197;53.200;5.792;2024-03-25T10:46:31;7.80;;;1.25;;
53309;SDS011;39197;53.200;5.792;2024-03-25T10:49:05;5.53;;;0.70;;
53309;SDS011;39197;53.200;5.792;2024-03-25T10:51:48;7.82;;;1.25;;
53309;SDS011;39197;53.200;5.792;2024-03-25T10:54:15;10.05;;;0.90;;
53309;SDS011;39197;53.200;5.792;2024-03-25T10:56:42;13.57;;;2.25;;
53309;SDS011;39197;53.200;5.792;2024-03-25T10:59:08;11.85;;;1.27;;
53309;SDS011;39197;53.200;5.792;2024-03-25T11:01:36;8.10;;;0.90;;
53309;SDS011;39197;53.200;5.792;2024-03-25T11:04:02;7.85;;;1.17;;
53309;SDS011;39197;53.200;5.792;2024-03-25T11:06:31;8.63;;;1.30;;
53309;SDS011;39197;53.200;5.792;2024-03-25T11:08:57;6.68;;;1.00;;
53309;SDS011;39197;53.200;5.792;2024-03-25T11:11:24;11.35;;;1.73;;
53309;SDS011;39197;53.200;5.792;2024-03-25T11:13:56;9.10;;;1.67;;
53309;SDS011;39197;53.200;5.792;2024-03-25T11:16:31;9.10;;;1.55;;
53309;SDS011;39197;53.200;5.792;2024-03-25T11:19:01;10.10;;;1.85;;
53309;SDS011;39197;53.200;5.792;2024-03-25T11:21:27;10.05;;;2.10;;
53309;SDS011;39197;53.200;5.792;2024-03-25T11:23:53;12.77;;;1.73;;
53309;SDS011;39197;53.200;5.792;2024-03-25T11:26:22;9.38;;;1.20;;
53309;SDS011;39197;53.200;5.792;2024-03-25T11:28:51;14.77;;;1.60;;
53309;SDS011;39197;53.200;5.792;2024-03-25T11:31:22;11.30;;;1.20;;
53309;SDS011;39197;53.200;5.792;2024-03-25T11:33:50;7.90;;;1.20;;
53309;SDS011;39197;53.200;5.792;2024-03-25T11:36:16;12.80;;;1.60;;
53309;SDS011;39197;53.200;5.792;2024-03-25T11:38:57;11.23;;;2.88;;
53309;SDS011;39197;53.200;5.792;2024-03-25T11:41:23;16.85;;;2.03;;
53309;SDS011;39197;53.200;5.792;2024-03-25T11:43:49;12.55;;;1.85;;
53309;SDS011;39197;53.200;5.792;2024-03-25T11:46:18;8.60;;;1.25;;
53309;SDS011;39197;53.200;5.792;2024-03-25T11:48:44;9.63;;;2.15;;
53309;SDS011;39197;53.200;5.792;2024-03-25T11:51:16;11.75;;;1.30;;
53309;SDS011;39197;53.200;5.792;2024-03-25T11:56:08;10.68;;;1.92;;
53309;SDS011;39197;53.200;5.792;2024-03-25T11:58:34;15.80;;;4.70;;
53309;SDS011;39197;53.200;5.792;2024-03-25T12:00:59;9.35;;;1.60;;
53309;SDS011;39197;53.200;5.792;2024-03-25T12:03:25;8.77;;;1.30;;
53309;SDS011;39197;53.200;5.792;2024-03-25T12:05:51;10.40;;;2.72;;
53309;SDS011;39197;53.200;5.792;2024-03-25T12:08:17;8.10;;;1.70;;
53309;SDS011;39197;53.200;5.792;2024-03-25T12:10:43;9.63;;;1.50;;
53309;SDS011;39197;53.200;5.792;2024-03-25T12:13:27;10.30;;;2.42;;
53309;SDS011;39197;53.200;5.792;2024-03-25T12:15:53;9.13;;;1.83;;
53309;SDS011;39197;53.200;5.792;2024-03-25T12:18:18;11.48;;;2.63;;
53309;SDS011;39197;53.200;5.792;2024-03-25T12:20:45;14.02;;;2.33;;
53309;SDS011;39197;53.200;5.792;2024-03-25T12:23:11;10.75;;;1.75;;
53309;SDS011;39197;53.200;5.792;2024-03-25T12:25:36;10.88;;;2.10;;
53309;SDS011;39197;53.200;5.792;2024-03-25T12:28:07;12.98;;;2.10;;
53309;SDS011;39197;53.200;5.792;2024-03-25T12:30:40;10.45;;;1.83;;
53309;SDS011;39197;53.200;5.792;2024-03-25T12:33:14;12.55;;;2.53;;
53309;SDS011;39197;53.200;5.792;2024-03-25T12:35:41;11.38;;;2.10;;
53309;SDS011;39197;53.200;5.792;2024-03-25T12:38:06;13.18;;;1.88;;
53309;SDS011;39197;53.200;5.792;2024-03-25T12:40:32;11.00;;;1.58;;
53309;SDS011;39197;53.200;5.792;2024-03-25T12:42:58;9.70;;;1.60;;
53309;SDS011;39197;53.200;5.792;2024-03-25T12:45:23;9.77;;;1.98;;
53309;SDS011;39197;53.200;5.792;2024-03-25T12:47:50;8.45;;;1.90;;
53309;SDS011;39197;53.200;5.792;2024-03-25T12:50:15;9.38;;;1.38;;
53309;SDS011;39197;53.200;5.792;2024-03-25T12:52:41;13.88;;;2.72;;
53309;SDS011;39197;53.200;5.792;2024-03-25T12:55:07;12.75;;;2.38;;
53309;SDS011;39197;53.200;5.792;2024-03-25T12:57:32;14.45;;;2.25;;
53309;SDS011;39197;53.200;5.792;2024-03-25T13:00:00;7.95;;;1.35;;
53309;SDS011;39197;53.200;5.792;2024-03-25T13:02:26;9.45;;;1.45;;
53309;SDS011;39197;53.200;5.792;2024-03-25T13:04:51;10.88;;;1.48;;
53309;SDS011;39197;53.200;5.792;2024-03-25T13:07:17;12.65;;;2.22;;
53309;SDS011;39197;53.200;5.792;2024-03-25T13:09:42;9.20;;;1.70;;
53309;SDS011;39197;53.200;5.792;2024-03-25T13:12:08;6.75;;;0.70;;
53309;SDS011;39197;53.200;5.792;2024-03-25T13:14:34;5.20;;;0.80;;
53309;SDS011;39197;53.200;5.792;2024-03-25T13:16:59;9.52;;;1.75;;
53309;SDS011;39197;53.200;5.792;2024-03-25T13:19:25;14.73;;;6.25;;
53309;SDS011;39197;53.200;5.792;2024-03-25T13:21:53;6.75;;;1.33;;
53309;SDS011;39197;53.200;5.792;2024-03-25T13:24:20;6.00;;;0.85;;
53309;SDS011;39197;53.200;5.792;2024-03-25T13:26:45;10.07;;;1.10;;
53309;SDS011;39197;53.200;5.792;2024-03-25T13:29:11;16.88;;;1.45;;
53309;SDS011;39197;53.200;5.792;2024-03-25T13:31:37;7.13;;;1.27;;
53309;SDS011;39197;53.200;5.792;2024-03-25T13:34:02;9.55;;;1.35;;
53309;SDS011;39197;53.200;5.792;2024-03-25T13:36:28;6.47;;;0.90;;
53309;SDS011;39197;53.200;5.792;2024-03-25T13:38:54;9.60;;;1.80;;
53309;SDS011;39197;53.200;5.792;2024-03-25T13:41:19;14.18;;;5.75;;
53309;SDS011;39197;53.200;5.792;2024-03-25T13:43:47;4.47;;;1.25;;
53309;SDS011;39197;53.200;5.792;2024-03-25T13:46:13;5.53;;;1.00;;
53309;SDS011;39197;53.200;5.792;2024-03-25T13:48:39;6.53;;;1.17;;
53309;SDS011;39197;53.200;5.792;2024-03-25T13:51:05;7.88;;;1.00;;
53309;SDS011;39197;53.200;5.792;2024-03-25T13:53:31;9.73;;;1.33;;
53309;SDS011;39197;53.200;5.792;2024-03-25T13:55:57;11.15;;;4.25;;
53309;SDS011;39197;53.200;5.792;2024-03-25T13:58:23;6.57;;;1.40;;
53309;SDS011;39197;53.200;5.792;2024-03-25T14:00:48;6.15;;;1.10;;
53309;SDS011;39197;53.200;5.792;2024-03-25T14:03:15;5.68;;;0.90;;
53309;SDS011;39197;53.200;5.792;2024-03-25T14:05:41;6.80;;;1.63;;
53309;SDS011;39197;53.200;5.792;2024-03-25T14:08:06;5.22;;;0.88;;
53309;SDS011;39197;53.200;5.792;2024-03-25T14:10:32;5.78;;;1.20;;
53309;SDS011;39197;53.200;5.792;2024-03-25T14:12:57;5.63;;;0.73;;
53309;SDS011;39197;53.200;5.792;2024-03-25T14:15:23;6.72;;;0.88;;
53309;SDS011;39197;53.200;5.792;2024-03-25T14:17:49;5.88;;;1.08;;
53309;SDS011;39197;53.200;5.792;2024-03-25T14:20:14;5.00;;;0.98;;
53309;SDS011;39197;53.200;5.792;2024-03-25T14:22:40;8.55;;;1.20;;
53309;SDS011;39197;53.200;5.792;2024-03-25T14:25:06;7.35;;;1.17;;
53309;SDS011;39197;53.200;5.792;2024-03-25T14:27:32;9.20;;;1.17;;
53309;SDS011;39197;53.200;5.792;2024-03-25T14:29:57;5.65;;;1.42;;
53309;SDS011;39197;53.200;5.792;2024-03-25T14:32:23;7.22;;;1.70;;
53309;SDS011;39197;53.200;5.792;2024-03-25T14:34:49;6.03;;;1.27;;
53309;SDS011;39197;53.200;5.792;2024-03-25T14:37:15;8.50;;;2.85;;